48CO weather

Shaull Farm Airstrip
Nunn, Colorado, United States

Public forecast

Using degrees Fahrenheit for public forecast. Weather courtesy of forecast.io.

Closest aviation weather report (METAR) to Shaull Farm Airstrip

Closest report is Greeley–Weld County Airport, 18.3 nm (33.9 km) SSE. Retrieved 2020/02/22 21:56 UTC (36 minutes ago):

KGXY 222156Z AUTO 14011KT 10SM CLR 16/M06 A2997 RMK AO2 SLP161 T01561061

Closest aviation forecast (TAF) to Shaull Farm Airstrip

Closest forecast is Cheyenne Regional Jerry Olson Field, 26.1 nm (48.4 km) N. Retrieved 2020/02/22 18:22 UTC (4 hours ago):

TAF KCYS 221720Z 2218/2318 28025G35KT P6SM SKC FM222100 29013G23KT P6SM SKC FM231000 34007KT P6SM VCSH BKN040